Time;durP1;ratioP1;P1;durP2;ratioP2;P2;SDS_P1;SDS_P2;PMS_P1;PMS_P2;Temp;Humidity;BMP_temperature;BMP_pressure;BME280_temperature;BME280_humidity;BME280_pressure;Samples;Min_cycle;Max_cycle;Signal;HPM_P1;HPM_P2
2024/01/16 00:02:25;;;;;;;0.55;0.45;;;;;;;;;;5050019;28;20080;-67
2024/01/16 00:04:51;;;;;;;1.15;0.60;;;;;;;;;;5056922;28;20063;-63
2024/01/16 00:07:17;;;;;;;1.25;0.65;;;;;;;;;;5035903;28;20049;-62
2024/01/16 00:09:42;;;;;;;1.08;0.60;;;;;;;;;;5037165;28;20053;-63
2024/01/16 00:12:10;;;;;;;1.10;0.60;;;;;;;;;;5045680;28;20068;-64
2024/01/16 00:14:36;;;;;;;1.30;0.70;;;;;;;;;;5041526;28;20088;-63
2024/01/16 00:17:04;;;;;;;0.85;0.65;;;;;;;;;;5036736;28;20500;-62
2024/01/16 00:19:33;;;;;;;2.42;1.00;;;;;;;;;;5041675;28;20099;-65
2024/01/16 00:22:02;;;;;;;1.65;0.73;;;;;;;;;;5046228;28;20217;-64
2024/01/16 00:24:28;;;;;;;2.50;0.98;;;;;;;;;;5045193;28;20045;-62
2024/01/16 00:26:56;;;;;;;0.98;0.82;;;;;;;;;;5043335;28;20132;-65
2024/01/16 00:29:23;;;;;;;1.42;0.80;;;;;;;;;;5043145;28;20051;-65
2024/01/16 00:31:49;;;;;;;1.05;0.80;;;;;;;;;;5059977;28;20051;-64
2024/01/16 00:34:16;;;;;;;1.65;0.82;;;;;;;;;;5042209;28;20060;-64
2024/01/16 00:36:42;;;;;;;2.15;0.90;;;;;;;;;;5046930;28;20045;-63
2024/01/16 00:39:08;;;;;;;1.25;0.63;;;;;;;;;;5045450;28;20063;-64
2024/01/16 00:41:35;;;;;;;2.75;0.85;;;;;;;;;;5047213;28;20106;-63
2024/01/16 00:44:01;;;;;;;5.50;0.85;;;;;;;;;;5063657;28;20160;-63
2024/01/16 00:46:28;;;;;;;1.00;0.80;;;;;;;;;;5046365;28;20501;-63
2024/01/16 00:48:53;;;;;;;2.20;0.93;;;;;;;;;;5045271;28;20040;-62
2024/01/16 00:51:19;;;;;;;2.15;0.85;;;;;;;;;;5046015;28;20057;-64
2024/01/16 00:53:47;;;;;;;1.92;1.00;;;;;;;;;;5041302;28;20916;-62
2024/01/16 00:56:14;;;;;;;2.10;1.00;;;;;;;;;;5045128;28;20586;-64
2024/01/16 00:58:40;;;;;;;3.30;1.10;;;;;;;;;;5046525;28;20071;-63
2024/01/16 01:01:07;;;;;;;2.13;0.88;;;;;;;;;;5043645;28;20053;-63
2024/01/16 01:03:32;;;;;;;2.17;0.90;;;;;;;;;;5047523;28;20048;-65
2024/01/16 01:06:00;;;;;;;2.08;1.00;;;;;;;;;;5039290;28;20498;-63
2024/01/16 01:08:26;;;;;;;1.70;0.95;;;;;;;;;;5042134;28;20049;-63
2024/01/16 01:10:52;;;;;;;2.60;1.05;;;;;;;;;;5046968;28;20053;-63
2024/01/16 01:13:18;;;;;;;2.40;0.82;;;;;;;;;;5055828;28;20562;-63
2024/01/16 01:15:45;;;;;;;7.13;1.00;;;;;;;;;;5057781;28;20184;-64
2024/01/16 01:18:11;;;;;;;5.20;0.98;;;;;;;;;;5046118;28;20463;-65
2024/01/16 01:20:37;;;;;;;2.25;1.10;;;;;;;;;;5044657;28;20141;-67
2024/01/16 01:23:04;;;;;;;2.00;1.13;;;;;;;;;;5050184;28;20041;-65
2024/01/16 01:25:31;;;;;;;3.45;1.00;;;;;;;;;;5050691;28;20467;-63
2024/01/16 01:27:57;;;;;;;3.13;1.00;;;;;;;;;;5029973;28;20421;-64
2024/01/16 01:30:27;;;;;;;2.92;1.08;;;;;;;;;;5049820;28;20045;-63
2024/01/16 01:32:57;;;;;;;4.43;1.10;;;;;;;;;;5045148;28;20497;-63
2024/01/16 01:35:23;;;;;;;3.42;1.13;;;;;;;;;;5052581;28;20407;-63
2024/01/16 01:37:50;;;;;;;2.00;1.10;;;;;;;;;;5044663;28;20045;-63
2024/01/16 01:40:16;;;;;;;2.78;1.00;;;;;;;;;;5048338;28;20064;-63
2024/01/16 01:42:44;;;;;;;2.13;1.13;;;;;;;;;;5055794;28;20049;-63
2024/01/16 01:45:11;;;;;;;1.63;1.00;;;;;;;;;;5059463;28;20060;-64
2024/01/16 01:47:44;;;;;;;2.55;1.10;;;;;;;;;;5049605;28;20048;-62
2024/01/16 01:50:12;;;;;;;3.88;1.30;;;;;;;;;;5046215;28;20425;-64
2024/01/16 01:52:40;;;;;;;2.10;1.08;;;;;;;;;;5045724;28;20789;-64
2024/01/16 01:55:13;;;;;;;1.35;1.00;;;;;;;;;;5044341;28;20069;-64
2024/01/16 01:57:42;;;;;;;2.35;1.00;;;;;;;;;;5048881;28;20427;-63
2024/01/16 02:00:10;;;;;;;2.05;1.00;;;;;;;;;;5060503;28;20060;-66
2024/01/16 02:02:37;;;;;;;1.88;1.10;;;;;;;;;;5051593;28;20045;-62
2024/01/16 02:05:03;;;;;;;2.22;1.00;;;;;;;;;;5047307;28;20043;-62
2024/01/16 02:07:33;;;;;;;3.50;1.10;;;;;;;;;;5049580;28;20052;-63
2024/01/16 02:10:00;;;;;;;5.63;1.17;;;;;;;;;;5058828;28;20524;-63
2024/01/16 02:12:26;;;;;;;3.35;1.10;;;;;;;;;;5048268;28;20037;-63
2024/01/16 02:14:52;;;;;;;3.08;1.00;;;;;;;;;;5041788;28;20460;-62
2024/01/16 02:17:18;;;;;;;1.65;1.10;;;;;;;;;;5045505;28;20053;-65
2024/01/16 02:19:44;;;;;;;4.65;1.38;;;;;;;;;;5046278;28;20045;-62
2024/01/16 02:22:16;;;;;;;3.00;1.20;;;;;;;;;;5046214;28;20046;-62
2024/01/16 02:24:45;;;;;;;2.97;1.27;;;;;;;;;;5048326;28;20102;-63
2024/01/16 02:27:11;;;;;;;5.40;1.13;;;;;;;;;;5042614;28;20140;-63
2024/01/16 02:29:43;;;;;;;3.13;1.30;;;;;;;;;;5048557;28;20132;-63
2024/01/16 02:32:12;;;;;;;3.25;1.30;;;;;;;;;;5046726;28;20524;-62
2024/01/16 02:34:38;;;;;;;3.70;1.20;;;;;;;;;;5048576;28;20075;-63
2024/01/16 02:37:05;;;;;;;4.70;1.40;;;;;;;;;;5061332;28;20501;-62
2024/01/16 02:39:31;;;;;;;5.43;1.17;;;;;;;;;;5045127;28;20068;-63
2024/01/16 02:41:57;;;;;;;1.60;1.05;;;;;;;;;;5050340;28;20053;-61
2024/01/16 02:44:23;;;;;;;2.03;1.10;;;;;;;;;;5044594;28;20131;-63
2024/01/16 02:46:49;;;;;;;2.90;1.10;;;;;;;;;;5046079;28;20052;-63
2024/01/16 02:49:15;;;;;;;5.32;1.30;;;;;;;;;;5042485;28;20057;-62
2024/01/16 02:51:41;;;;;;;3.40;1.45;;;;;;;;;;5045400;28;20381;-63
2024/01/16 02:54:08;;;;;;;4.45;1.75;;;;;;;;;;5045981;28;20053;-62
2024/01/16 02:56:34;;;;;;;3.47;1.35;;;;;;;;;;5048716;28;20045;-62
2024/01/16 02:59:00;;;;;;;2.88;1.27;;;;;;;;;;5048175;28;20053;-63
2024/01/16 03:01:27;;;;;;;5.63;1.48;;;;;;;;;;5046253;28;20118;-63
2024/01/16 03:03:53;;;;;;;1.55;1.05;;;;;;;;;;5045062;28;20037;-64
2024/01/16 03:06:23;;;;;;;4.65;1.20;;;;;;;;;;5044825;28;20052;-63
2024/01/16 03:08:50;;;;;;;2.85;1.10;;;;;;;;;;5045205;28;20044;-62
2024/01/16 03:11:16;;;;;;;2.00;1.08;;;;;;;;;;5043300;28;20073;-61
2024/01/16 03:13:42;;;;;;;4.35;1.40;;;;;;;;;;5044657;28;20437;-63
2024/01/16 03:16:08;;;;;;;2.67;1.08;;;;;;;;;;5038277;28;20045;-64
2024/01/16 03:18:35;;;;;;;2.05;1.00;;;;;;;;;;5042422;28;20410;-62
2024/01/16 03:21:03;;;;;;;1.80;0.90;;;;;;;;;;5040795;28;20552;-63
2024/01/16 03:23:29;;;;;;;2.88;1.10;;;;;;;;;;5039529;28;20591;-63
2024/01/16 03:25:55;;;;;;;1.67;0.90;;;;;;;;;;5054022;28;20056;-64
2024/01/16 03:28:20;;;;;;;2.83;0.88;;;;;;;;;;5043565;28;20052;-62
2024/01/16 03:30:47;;;;;;;2.88;0.80;;;;;;;;;;5046748;28;20089;-63
2024/01/16 03:33:13;;;;;;;2.72;1.20;;;;;;;;;;5045956;28;20084;-63
2024/01/16 03:35:39;;;;;;;2.72;1.10;;;;;;;;;;5047267;28;20047;-63
2024/01/16 03:38:05;;;;;;;2.17;0.90;;;;;;;;;;5042917;28;20041;-62
2024/01/16 03:40:34;;;;;;;1.35;0.90;;;;;;;;;;5041444;28;20044;-65
2024/01/16 03:43:01;;;;;;;2.53;0.98;;;;;;;;;;5043653;28;20045;-65
2024/01/16 03:45:27;;;;;;;2.92;1.10;;;;;;;;;;5053511;28;20131;-62
2024/01/16 03:47:54;;;;;;;4.78;1.35;;;;;;;;;;5049867;28;20351;-65
2024/01/16 03:50:21;;;;;;;2.03;0.93;;;;;;;;;;5044951;28;20576;-63
2024/01/16 03:52:47;;;;;;;2.72;1.00;;;;;;;;;;5043907;28;20531;-63
2024/01/16 03:55:13;;;;;;;5.05;1.10;;;;;;;;;;5042246;28;20060;-62
2024/01/16 03:57:42;;;;;;;2.25;0.90;;;;;;;;;;5044721;28;20098;-61
2024/01/16 04:00:12;;;;;;;2.33;0.90;;;;;;;;;;5046557;28;20053;-62
2024/01/16 04:02:40;;;;;;;3.55;1.10;;;;;;;;;;5036235;28;20052;-63
2024/01/16 04:05:07;;;;;;;1.63;0.90;;;;;;;;;;5039725;28;20036;-63
2024/01/16 04:07:35;;;;;;;1.85;0.88;;;;;;;;;;5054558;28;20041;-64
2024/01/16 04:10:06;;;;;;;1.45;0.90;;;;;;;;;;5048410;28;20056;-63
2024/01/16 04:12:32;;;;;;;3.67;0.88;;;;;;;;;;5035404;28;20056;-64
2024/01/16 04:15:01;;;;;;;2.25;0.80;;;;;;;;;;5047251;28;20053;-63
2024/01/16 04:17:27;;;;;;;5.78;1.05;;;;;;;;;;5045190;28;20045;-62
2024/01/16 04:19:53;;;;;;;4.30;1.35;;;;;;;;;;5045319;28;20049;-63
2024/01/16 04:22:19;;;;;;;2.28;0.80;;;;;;;;;;5043755;28;20167;-63
2024/01/16 04:24:48;;;;;;;0.93;0.80;;;;;;;;;;5037972;28;20053;-62
2024/01/16 04:27:14;;;;;;;2.35;0.90;;;;;;;;;;5043568;28;20561;-61
2024/01/16 04:29:40;;;;;;;0.75;0.70;;;;;;;;;;5042548;28;20048;-63
2024/01/16 04:32:06;;;;;;;1.27;0.90;;;;;;;;;;5047045;28;20059;-62
2024/01/16 04:34:34;;;;;;;2.95;0.77;;;;;;;;;;5046925;28;20124;-63
2024/01/16 04:37:00;;;;;;;2.95;1.23;;;;;;;;;;5042091;28;24183;-62
2024/01/16 04:39:26;;;;;;;2.58;0.90;;;;;;;;;;5044043;28;20108;-62
2024/01/16 04:41:54;;;;;;;1.13;0.80;;;;;;;;;;5044981;28;20497;-63
2024/01/16 04:44:26;;;;;;;3.55;1.10;;;;;;;;;;5046373;28;20139;-62
2024/01/16 04:46:52;;;;;;;2.17;0.90;;;;;;;;;;5049709;28;20083;-62
2024/01/16 04:49:27;;;;;;;3.97;1.10;;;;;;;;;;5062660;28;20065;-63
2024/01/16 04:51:53;;;;;;;3.28;1.05;;;;;;;;;;5049793;28;20565;-63
2024/01/16 04:54:21;;;;;;;3.45;1.05;;;;;;;;;;5049473;28;20140;-63
2024/01/16 04:56:47;;;;;;;1.30;0.88;;;;;;;;;;5044420;28;20120;-63
2024/01/16 04:59:13;;;;;;;6.22;1.08;;;;;;;;;;5048895;28;20424;-65
2024/01/16 05:01:39;;;;;;;4.43;1.10;;;;;;;;;;5051108;28;20083;-65
2024/01/16 05:04:07;;;;;;;2.60;1.02;;;;;;;;;;5043428;28;20049;-63
2024/01/16 05:06:35;;;;;;;3.05;1.23;;;;;;;;;;5047852;28;20135;-63
2024/01/16 05:09:03;;;;;;;2.60;1.27;;;;;;;;;;5063347;28;20049;-63
2024/01/16 05:11:29;;;;;;;3.25;1.30;;;;;;;;;;5052866;28;20049;-62
2024/01/16 05:13:57;;;;;;;6.70;1.38;;;;;;;;;;5045669;28;20127;-62
2024/01/16 05:16:27;;;;;;;5.00;1.33;;;;;;;;;;5045912;28;20489;-62
2024/01/16 05:18:53;;;;;;;1.77;1.15;;;;;;;;;;5038243;28;20057;-64
2024/01/16 05:21:20;;;;;;;3.00;1.35;;;;;;;;;;5049927;28;20144;-62
2024/01/16 05:23:48;;;;;;;3.58;1.23;;;;;;;;;;5046796;28;20115;-62
2024/01/16 05:26:17;;;;;;;4.07;1.30;;;;;;;;;;5047682;28;20056;-61
2024/01/16 05:28:43;;;;;;;3.85;1.50;;;;;;;;;;5048270;28;20144;-61
2024/01/16 05:31:09;;;;;;;3.47;1.33;;;;;;;;;;5048138;28;20128;-63
2024/01/16 05:33:36;;;;;;;4.85;1.60;;;;;;;;;;5048833;28;20459;-63
2024/01/16 05:36:06;;;;;;;3.10;1.55;;;;;;;;;;5051768;28;20071;-64
2024/01/16 05:38:33;;;;;;;3.25;1.58;;;;;;;;;;5050510;28;20128;-64
2024/01/16 05:40:59;;;;;;;2.42;1.50;;;;;;;;;;5048705;28;20048;-60
2024/01/16 05:43:29;;;;;;;4.20;1.50;;;;;;;;;;5042052;28;20103;-64
2024/01/16 05:45:55;;;;;;;3.45;1.55;;;;;;;;;;5045919;28;20114;-64
2024/01/16 05:48:29;;;;;;;6.45;1.73;;;;;;;;;;5061399;28;20045;-62
2024/01/16 05:50:55;;;;;;;5.63;1.30;;;;;;;;;;5046399;28;20110;-64
2024/01/16 05:53:21;;;;;;;3.47;1.50;;;;;;;;;;5051523;28;20059;-63
2024/01/16 05:55:48;;;;;;;8.45;1.48;;;;;;;;;;5047872;28;20053;-66
2024/01/16 05:58:14;;;;;;;4.60;1.38;;;;;;;;;;5046561;28;20057;-62
2024/01/16 06:00:41;;;;;;;7.60;1.45;;;;;;;;;;5046898;28;20574;-63
2024/01/16 06:03:07;;;;;;;2.00;1.20;;;;;;;;;;5045493;28;20094;-62
2024/01/16 06:05:33;;;;;;;6.03;1.60;;;;;;;;;;5062937;28;20082;-63
2024/01/16 06:08:02;;;;;;;5.32;1.77;;;;;;;;;;5041900;28;20531;-65
2024/01/16 06:10:30;;;;;;;5.88;1.60;;;;;;;;;;5049187;28;20884;-64
2024/01/16 06:12:58;;;;;;;8.85;1.90;;;;;;;;;;5044059;28;20057;-63
2024/01/16 06:15:24;;;;;;;5.15;1.88;;;;;;;;;;5049775;28;20570;-65
2024/01/16 06:17:50;;;;;;;5.50;1.50;;;;;;;;;;5049549;28;20194;-64
2024/01/16 06:20:16;;;;;;;4.00;1.60;;;;;;;;;;5048884;28;20056;-62
2024/01/16 06:22:44;;;;;;;5.15;1.88;;;;;;;;;;5048833;28;20098;-63
2024/01/16 06:25:11;;;;;;;2.10;1.38;;;;;;;;;;5044841;28;20056;-63
2024/01/16 06:27:38;;;;;;;6.13;1.80;;;;;;;;;;5048044;28;20048;-63
2024/01/16 06:30:04;;;;;;;6.93;2.15;;;;;;;;;;5044028;28;20052;-63
2024/01/16 06:32:30;;;;;;;5.53;1.67;;;;;;;;;;5043299;28;20049;-63
2024/01/16 06:34:56;;;;;;;3.13;1.65;;;;;;;;;;5048641;28;20690;-61
2024/01/16 06:37:22;;;;;;;4.28;1.67;;;;;;;;;;5044556;28;20053;-65
2024/01/16 06:39:48;;;;;;;8.82;1.90;;;;;;;;;;5045096;28;20135;-66
2024/01/16 06:42:16;;;;;;;6.43;1.70;;;;;;;;;;5047581;28;20167;-64
2024/01/16 06:44:43;;;;;;;4.57;1.50;;;;;;;;;;5040083;28;20132;-64
2024/01/16 06:47:10;;;;;;;5.90;1.80;;;;;;;;;;5048728;28;20045;-61
2024/01/16 06:49:36;;;;;;;3.97;1.60;;;;;;;;;;5040745;28;20055;-63
2024/01/16 06:52:03;;;;;;;2.35;1.40;;;;;;;;;;5046393;28;20052;-65
2024/01/16 06:54:29;;;;;;;7.30;1.50;;;;;;;;;;5036817;28;20136;-63
2024/01/16 06:56:55;;;;;;;4.13;1.52;;;;;;;;;;5046886;28;20045;-62
2024/01/16 06:59:21;;;;;;;6.55;2.30;;;;;;;;;;5042468;28;20055;-64
2024/01/16 07:01:48;;;;;;;12.30;1.98;;;;;;;;;;5043870;28;20080;-65
2024/01/16 07:04:14;;;;;;;5.57;2.00;;;;;;;;;;5045962;28;20053;-70
2024/01/16 07:06:40;;;;;;;4.13;2.00;;;;;;;;;;5044879;28;20049;-65
2024/01/16 07:09:09;;;;;;;6.00;2.03;;;;;;;;;;5044924;28;20044;-63
2024/01/16 07:11:38;;;;;;;6.95;1.90;;;;;;;;;;5049016;28;20057;-63
2024/01/16 07:14:04;;;;;;;5.18;1.95;;;;;;;;;;5052874;28;20051;-63
2024/01/16 07:16:30;;;;;;;5.80;2.42;;;;;;;;;;5048873;28;20049;-64
2024/01/16 07:18:56;;;;;;;5.80;2.42;;;;;;;;;;5050158;28;20450;-65
2024/01/16 07:21:23;;;;;;;5.82;2.50;;;;;;;;;;5047380;28;20477;-63
2024/01/16 07:23:49;;;;;;;9.38;2.63;;;;;;;;;;5041803;28;20493;-63
2024/01/16 07:26:17;;;;;;;7.05;2.78;;;;;;;;;;5048228;28;20068;-65
2024/01/16 07:28:43;;;;;;;8.00;2.30;;;;;;;;;;5037411;28;20056;-62
2024/01/16 07:31:11;;;;;;;10.30;2.30;;;;;;;;;;5045171;28;20049;-62
2024/01/16 07:33:37;;;;;;;5.53;2.05;;;;;;;;;;5046276;28;20428;-61
2024/01/16 07:36:03;;;;;;;4.03;2.03;;;;;;;;;;5051267;28;20071;-60
2024/01/16 07:38:29;;;;;;;5.18;2.25;;;;;;;;;;5041572;28;20085;-65
2024/01/16 07:40:56;;;;;;;5.40;1.90;;;;;;;;;;5054750;28;20110;-62
2024/01/16 07:43:22;;;;;;;6.07;1.77;;;;;;;;;;5049774;28;20045;-61
2024/01/16 07:45:57;;;;;;;5.90;1.92;;;;;;;;;;5043601;28;20072;-60
2024/01/16 07:48:23;;;;;;;7.68;1.92;;;;;;;;;;5043202;28;20432;-62
2024/01/16 07:51:00;;;;;;;5.35;1.50;;;;;;;;;;5041905;28;20041;-62
2024/01/16 07:53:55;;;;;;;3.88;1.05;;;;;;;;;;5042665;28;20060;-62
2024/01/16 07:56:21;;;;;;;2.88;1.02;;;;;;;;;;5039094;28;20037;-64
2024/01/16 07:58:47;;;;;;;1.98;1.02;;;;;;;;;;5047534;28;20052;-63
2024/01/16 08:01:13;;;;;;;5.22;1.27;;;;;;;;;;5046358;28;20060;-62
2024/01/16 08:03:40;;;;;;;5.43;1.40;;;;;;;;;;5044926;28;20053;-62
2024/01/16 08:06:06;;;;;;;6.03;1.30;;;;;;;;;;5045621;28;21049;-63
2024/01/16 08:08:33;;;;;;;7.35;1.60;;;;;;;;;;5039373;28;20179;-62
2024/01/16 08:11:00;;;;;;;7.97;1.50;;;;;;;;;;5047865;28;20049;-65
2024/01/16 08:13:27;;;;;;;5.53;1.70;;;;;;;;;;5054627;28;20045;-61
2024/01/16 08:15:53;;;;;;;8.88;1.63;;;;;;;;;;5054860;28;20048;-62
2024/01/16 08:18:19;;;;;;;5.28;1.40;;;;;;;;;;5047599;28;20080;-65
2024/01/16 08:20:46;;;;;;;6.30;1.40;;;;;;;;;;5044822;28;20493;-62
2024/01/16 08:23:12;;;;;;;7.22;1.70;;;;;;;;;;5044906;28;20045;-62
2024/01/16 08:25:39;;;;;;;11.13;1.80;;;;;;;;;;5049764;28;20062;-61
2024/01/16 08:28:05;;;;;;;5.32;1.63;;;;;;;;;;5045369;28;20053;-65
2024/01/16 08:30:31;;;;;;;5.90;1.65;;;;;;;;;;5046435;28;20476;-64
2024/01/16 08:32:58;;;;;;;12.30;1.95;;;;;;;;;;5044964;28;20060;-66
2024/01/16 08:35:24;;;;;;;9.32;1.77;;;;;;;;;;5044473;28;20053;-63
2024/01/16 08:37:50;;;;;;;4.25;1.70;;;;;;;;;;5029192;28;20045;-63
2024/01/16 08:40:18;;;;;;;5.18;1.60;;;;;;;;;;5055753;28;20059;-62
2024/01/16 08:42:44;;;;;;;6.78;1.70;;;;;;;;;;5062284;28;20064;-63
2024/01/16 08:45:11;;;;;;;3.60;1.63;;;;;;;;;;5048940;28;20053;-63
2024/01/16 08:47:37;;;;;;;5.63;1.67;;;;;;;;;;5043924;28;20045;-63
2024/01/16 08:50:04;;;;;;;6.63;1.98;;;;;;;;;;5043730;28;20064;-62
2024/01/16 08:52:30;;;;;;;3.08;1.88;;;;;;;;;;5045779;28;20048;-65
2024/01/16 08:54:58;;;;;;;4.65;1.50;;;;;;;;;;5045500;28;20067;-65
2024/01/16 08:57:24;;;;;;;2.70;1.50;;;;;;;;;;5045291;28;20076;-62
2024/01/16 08:59:53;;;;;;;6.55;1.40;;;;;;;;;;5042419;28;20143;-63
2024/01/16 09:02:19;;;;;;;3.53;1.50;;;;;;;;;;5042024;28;20060;-63
2024/01/16 09:04:47;;;;;;;5.15;1.60;;;;;;;;;;5045114;28;20080;-62
2024/01/16 09:07:15;;;;;;;7.22;1.30;;;;;;;;;;5043794;28;20098;-64
2024/01/16 09:09:42;;;;;;;7.72;1.58;;;;;;;;;;5045570;28;20056;-63
2024/01/16 09:12:11;;;;;;;3.85;1.25;;;;;;;;;;5046122;28;20080;-66
2024/01/16 09:14:39;;;;;;;4.20;1.52;;;;;;;;;;5044434;28;20049;-65
2024/01/16 09:17:08;;;;;;;6.63;1.17;;;;;;;;;;5045701;28;20055;-64
2024/01/16 09:19:34;;;;;;;2.25;1.17;;;;;;;;;;5046080;28;20139;-63
2024/01/16 09:22:03;;;;;;;4.40;1.25;;;;;;;;;;5044443;28;20056;-63
2024/01/16 09:24:30;;;;;;;4.97;1.15;;;;;;;;;;5044669;28;20968;-65
2024/01/16 09:26:58;;;;;;;3.20;1.10;;;;;;;;;;5045045;28;20211;-63
2024/01/16 09:29:24;;;;;;;2.45;1.00;;;;;;;;;;5043289;28;20151;-64
2024/01/16 09:31:51;;;;;;;5.22;1.10;;;;;;;;;;5045858;28;20045;-63
2024/01/16 09:34:17;;;;;;;4.03;1.15;;;;;;;;;;5049348;28;20473;-63
2024/01/16 09:36:43;;;;;;;4.47;1.20;;;;;;;;;;5043999;28;20041;-62
2024/01/16 09:39:13;;;;;;;11.05;1.33;;;;;;;;;;5050920;28;20068;-64
2024/01/16 09:41:39;;;;;;;5.97;1.40;;;;;;;;;;5050163;28;20060;-65
2024/01/16 09:44:07;;;;;;;2.03;0.90;;;;;;;;;;5046800;28;20045;-62
2024/01/16 09:46:37;;;;;;;2.45;0.80;;;;;;;;;;5042896;28;20606;-64
2024/01/16 09:49:03;;;;;;;2.40;0.82;;;;;;;;;;5048056;28;20685;-64
2024/01/16 09:51:29;;;;;;;4.78;1.40;;;;;;;;;;5047769;28;20139;-64
2024/01/16 09:53:56;;;;;;;3.78;1.30;;;;;;;;;;5047116;28;20061;-64
2024/01/16 09:56:26;;;;;;;3.45;1.20;;;;;;;;;;5046923;28;20056;-63
2024/01/16 09:59:00;;;;;;;2.30;0.98;;;;;;;;;;5047967;28;20068;-65
2024/01/16 10:01:28;;;;;;;2.22;1.15;;;;;;;;;;5049446;28;20045;-64
2024/01/16 10:03:55;;;;;;;3.15;1.10;;;;;;;;;;5049478;28;20125;-64
2024/01/16 10:06:22;;;;;;;5.32;0.93;;;;;;;;;;5031463;28;20103;-63
2024/01/16 10:08:48;;;;;;;4.40;0.90;;;;;;;;;;5044396;28;20476;-63
2024/01/16 10:11:14;;;;;;;1.25;0.88;;;;;;;;;;5046851;28;20520;-64
2024/01/16 10:13:41;;;;;;;1.52;0.90;;;;;;;;;;5058771;28;20051;-64
2024/01/16 10:16:10;;;;;;;10.13;1.08;;;;;;;;;;5046996;28;20057;-63
2024/01/16 10:18:37;;;;;;;1.73;0.80;;;;;;;;;;5044754;28;20059;-63
2024/01/16 10:21:05;;;;;;;4.57;1.10;;;;;;;;;;5046142;28;20052;-63
2024/01/16 10:23:32;;;;;;;3.35;0.80;;;;;;;;;;5045146;28;20139;-64
2024/01/16 10:26:09;;;;;;;5.70;1.02;;;;;;;;;;5046467;28;20041;-63
2024/01/16 10:28:39;;;;;;;9.82;1.17;;;;;;;;;;5041504;28;20527;-63
2024/01/16 10:31:06;;;;;;;6.95;0.98;;;;;;;;;;5047847;28;20048;-67
2024/01/16 10:33:33;;;;;;;3.30;0.88;;;;;;;;;;5047462;28;20423;-62
2024/01/16 10:36:16;;;;;;;6.38;1.20;;;;;;;;;;5046184;28;20131;-64
2024/01/16 10:38:43;;;;;;;3.22;1.08;;;;;;;;;;5046412;28;20052;-67
2024/01/16 10:41:21;;;;;;;13.73;0.93;;;;;;;;;;5047065;28;20052;-66
2024/01/16 10:43:48;;;;;;;4.50;0.80;;;;;;;;;;5054826;28;20053;-65
2024/01/16 10:46:15;;;;;;;5.32;1.20;;;;;;;;;;5049102;28;20056;-65
2024/01/16 10:48:44;;;;;;;2.22;1.13;;;;;;;;;;5060509;28;20227;-65
2024/01/16 10:51:20;;;;;;;5.32;1.13;;;;;;;;;;5047719;28;20057;-66
2024/01/16 10:53:51;;;;;;;3.63;1.08;;;;;;;;;;5052592;28;20065;-65
2024/01/16 10:56:17;;;;;;;2.63;0.93;;;;;;;;;;5050454;28;20413;-63
2024/01/16 10:58:48;;;;;;;4.20;1.20;;;;;;;;;;5050657;28;20056;-63
2024/01/16 11:01:17;;;;;;;3.38;1.35;;;;;;;;;;5048642;28;20056;-63
2024/01/16 11:03:49;;;;;;;2.30;1.00;;;;;;;;;;5045754;28;20044;-66
2024/01/16 11:06:17;;;;;;;1.98;1.13;;;;;;;;;;5053326;28;20045;-65
2024/01/16 11:08:48;;;;;;;1.58;1.00;;;;;;;;;;5053136;28;20048;-65
2024/01/16 11:11:17;;;;;;;2.35;1.15;;;;;;;;;;5047389;28;20045;-63
2024/01/16 11:13:46;;;;;;;3.65;0.90;;;;;;;;;;5047324;28;20506;-64
2024/01/16 11:16:13;;;;;;;2.88;1.20;;;;;;;;;;5045715;28;20063;-62
2024/01/16 11:18:39;;;;;;;1.25;0.90;;;;;;;;;;5058000;28;20064;-62
2024/01/16 11:21:08;;;;;;;8.18;1.25;;;;;;;;;;5045212;28;20523;-65
2024/01/16 11:23:37;;;;;;;4.13;0.93;;;;;;;;;;5039458;28;20063;-68
2024/01/16 11:26:26;;;;;;;6.78;1.00;;;;;;;;;;5047812;28;20136;-65
2024/01/16 11:28:58;;;;;;;2.35;0.90;;;;;;;;;;5046382;28;20428;-63
2024/01/16 11:31:28;;;;;;;4.15;1.17;;;;;;;;;;5045344;28;20507;-62
2024/01/16 11:33:56;;;;;;;2.58;0.93;;;;;;;;;;5039110;28;20129;-64
2024/01/16 11:36:51;;;;;;;2.33;0.77;;;;;;;;;;5047786;28;20135;-63
2024/01/16 11:39:24;;;;;;;4.38;1.23;;;;;;;;;;5043957;28;20048;-64
2024/01/16 11:41:57;;;;;;;2.35;1.00;;;;;;;;;;5045586;28;20045;-64
2024/01/16 11:44:45;;;;;;;7.28;1.00;;;;;;;;;;5044066;28;20048;-65
2024/01/16 11:47:22;;;;;;;3.95;1.08;;;;;;;;;;5051860;28;20053;-64
2024/01/16 11:50:09;;;;;;;4.28;0.90;;;;;;;;;;5036215;28;20048;-63
2024/01/16 11:52:45;;;;;;;3.90;1.00;;;;;;;;;;5044974;28;20141;-65
2024/01/16 11:55:30;;;;;;;5.05;1.00;;;;;;;;;;5046417;28;20060;-62
2024/01/16 11:58:19;;;;;;;4.90;0.90;;;;;;;;;;5057356;28;20041;-63
2024/01/16 12:00:52;;;;;;;11.85;1.35;;;;;;;;;;5044990;28;20052;-63
2024/01/16 12:03:21;;;;;;;4.65;1.20;;;;;;;;;;5037695;28;20053;-64
2024/01/16 12:06:00;;;;;;;2.30;0.82;;;;;;;;;;5076531;28;20049;-62
2024/01/16 12:08:28;;;;;;;5.45;0.95;;;;;;;;;;5045924;28;20057;-64
2024/01/16 12:10:54;;;;;;;3.60;1.10;;;;;;;;;;5045303;28;20106;-66
2024/01/16 12:13:20;;;;;;;5.22;1.48;;;;;;;;;;5058180;28;20053;-62
2024/01/16 12:15:52;;;;;;;8.75;1.25;;;;;;;;;;5059279;28;20063;-64
2024/01/16 12:18:19;;;;;;;6.03;1.10;;;;;;;;;;5045826;28;20353;-63
2024/01/16 12:20:45;;;;;;;6.38;1.15;;;;;;;;;;5060765;28;20061;-64
2024/01/16 12:23:11;;;;;;;5.28;1.70;;;;;;;;;;5059763;28;20135;-64
2024/01/16 12:25:38;;;;;;;8.00;1.60;;;;;;;;;;5045979;28;20111;-62
2024/01/16 12:28:13;;;;;;;7.45;1.40;;;;;;;;;;5045019;28;20489;-64
2024/01/16 12:30:48;;;;;;;4.55;1.35;;;;;;;;;;5042463;28;20068;-66
2024/01/16 12:33:15;;;;;;;7.22;1.80;;;;;;;;;;5046866;28;20047;-65
2024/01/16 12:35:42;;;;;;;5.20;1.60;;;;;;;;;;5047142;28;20045;-64
2024/01/16 12:38:09;;;;;;;6.88;1.83;;;;;;;;;;5047129;28;20041;-63
2024/01/16 12:40:42;;;;;;;17.10;1.73;;;;;;;;;;5048758;28;20057;-63
2024/01/16 12:43:11;;;;;;;3.38;1.08;;;;;;;;;;5049208;28;20037;-66
2024/01/16 12:45:37;;;;;;;6.97;1.50;;;;;;;;;;5044380;28;20053;-64
2024/01/16 12:48:05;;;;;;;7.57;1.85;;;;;;;;;;5047310;28;20041;-63
2024/01/16 12:50:32;;;;;;;4.03;1.30;;;;;;;;;;5046537;28;20477;-65
2024/01/16 12:53:05;;;;;;;2.00;1.00;;;;;;;;;;5045804;28;20041;-65
2024/01/16 12:55:38;;;;;;;4.00;1.10;;;;;;;;;;5045775;28;20279;-63
2024/01/16 12:58:28;;;;;;;7.40;1.13;;;;;;;;;;5048892;28;20075;-64
2024/01/16 13:00:55;;;;;;;5.07;1.45;;;;;;;;;;5043620;28;20328;-63
2024/01/16 13:03:27;;;;;;;1.90;1.08;;;;;;;;;;5044663;28;20099;-63
2024/01/16 13:06:05;;;;;;;2.92;1.00;;;;;;;;;;5046985;28;20608;-65
2024/01/16 13:08:31;;;;;;;3.00;1.00;;;;;;;;;;5046192;28;20037;-63
2024/01/16 13:11:06;;;;;;;1.58;0.90;;;;;;;;;;5049270;28;20044;-65
2024/01/16 13:13:32;;;;;;;3.47;1.40;;;;;;;;;;5052350;28;20040;-66
2024/01/16 13:16:00;;;;;;;1.77;0.80;;;;;;;;;;5052865;28;20045;-67
2024/01/16 13:18:29;;;;;;;6.95;1.05;;;;;;;;;;5048893;28;20044;-64
2024/01/16 13:20:57;;;;;;;4.47;1.25;;;;;;;;;;5048018;28;20796;-65
2024/01/16 13:23:26;;;;;;;4.47;0.88;;;;;;;;;;5052517;28;20431;-64
2024/01/16 13:26:04;;;;;;;6.45;1.40;;;;;;;;;;5053482;28;20063;-66
2024/01/16 13:28:30;;;;;;;2.78;1.02;;;;;;;;;;5039488;28;20041;-64
2024/01/16 13:30:57;;;;;;;4.63;1.15;;;;;;;;;;5048081;28;20120;-64
2024/01/16 13:33:27;;;;;;;4.78;1.10;;;;;;;;;;5050642;28;20219;-64
2024/01/16 13:35:57;;;;;;;3.60;1.20;;;;;;;;;;5048805;28;20067;-66
2024/01/16 13:38:23;;;;;;;5.90;0.98;;;;;;;;;;5046858;28;20049;-66
2024/01/16 13:40:50;;;;;;;4.70;1.05;;;;;;;;;;5044759;28;20711;-64
2024/01/16 13:43:16;;;;;;;2.38;0.90;;;;;;;;;;5050046;28;20045;-64
2024/01/16 13:45:43;;;;;;;4.60;1.00;;;;;;;;;;5052922;28;20052;-65
2024/01/16 13:48:09;;;;;;;3.72;1.30;;;;;;;;;;5050391;28;20049;-64
2024/01/16 13:50:35;;;;;;;2.92;1.27;;;;;;;;;;5046658;28;22242;-64
2024/01/16 13:53:02;;;;;;;5.28;1.40;;;;;;;;;;5049947;28;20049;-63
2024/01/16 13:55:31;;;;;;;1.83;1.00;;;;;;;;;;5048457;28;20147;-65
2024/01/16 13:57:58;;;;;;;5.53;1.33;;;;;;;;;;5048236;28;20064;-62
2024/01/16 14:00:25;;;;;;;4.10;1.20;;;;;;;;;;5048046;28;20182;-66
2024/01/16 14:02:52;;;;;;;4.55;1.38;;;;;;;;;;5047240;28;20057;-65
2024/01/16 14:05:19;;;;;;;7.13;1.50;;;;;;;;;;5046523;28;20143;-65
2024/01/16 14:07:46;;;;;;;7.78;1.38;;;;;;;;;;5047338;28;20131;-66
2024/01/16 14:10:14;;;;;;;4.85;1.27;;;;;;;;;;5046169;28;20061;-65
2024/01/16 14:12:42;;;;;;;5.82;1.85;;;;;;;;;;5046199;28;20052;-65
2024/01/16 14:15:18;;;;;;;6.43;1.50;;;;;;;;;;5049806;28;20052;-65
2024/01/16 14:17:49;;;;;;;8.18;1.17;;;;;;;;;;5053202;28;20037;-63
2024/01/16 14:20:18;;;;;;;7.72;1.77;;;;;;;;;;5043601;28;20049;-66
2024/01/16 14:22:44;;;;;;;10.63;1.83;;;;;;;;;;5054138;28;20097;-63
2024/01/16 14:25:12;;;;;;;14.23;1.90;;;;;;;;;;5049244;28;20048;-63
2024/01/16 14:27:42;;;;;;;9.13;1.92;;;;;;;;;;5048651;28;20128;-65
2024/01/16 14:30:14;;;;;;;5.78;1.73;;;;;;;;;;5047165;28;20052;-65
2024/01/16 14:32:44;;;;;;;8.60;1.80;;;;;;;;;;5044397;28;20041;-65
2024/01/16 14:35:13;;;;;;;6.18;1.88;;;;;;;;;;5045724;28;20104;-64
2024/01/16 14:37:40;;;;;;;9.73;1.88;;;;;;;;;;5047092;28;20159;-63
2024/01/16 14:40:20;;;;;;;7.65;2.03;;;;;;;;;;5046863;28;20053;-64
2024/01/16 14:43:08;;;;;;;9.85;2.10;;;;;;;;;;5047333;28;20051;-64
2024/01/16 14:45:34;;;;;;;6.13;1.83;;;;;;;;;;5048807;28;20512;-65
2024/01/16 14:48:04;;;;;;;18.23;2.47;;;;;;;;;;5046846;28;20044;-65
2024/01/16 14:50:30;;;;;;;9.63;2.53;;;;;;;;;;5045328;28;20045;-64